createdAt,value
2022-12-25T00:01:10.122Z,101634.29
2022-12-25T00:03:37.751Z,101638.36
2022-12-25T00:06:05.605Z,101642.88
2022-12-25T00:08:33.126Z,101641.05
2022-12-25T00:11:06.105Z,101643.14
2022-12-25T00:13:33.292Z,101643.34
2022-12-25T00:16:00.085Z,101643.42
2022-12-25T00:18:26.904Z,101648.69
2022-12-25T00:21:06.340Z,101648.46
2022-12-25T00:23:34.758Z,101647.29
2022-12-25T00:26:06.106Z,101645.23
2022-12-25T00:28:32.998Z,101648.28
2022-12-25T00:30:59.706Z,101650.66
2022-12-25T00:33:26.440Z,101649.45
2022-12-25T00:36:00.765Z,101651.82
2022-12-25T00:38:28.096Z,101652.63
2022-12-25T00:40:55.309Z,101651.40
2022-12-25T00:43:22.218Z,101646.13
2022-12-25T00:46:00.152Z,101646.42
2022-12-25T00:48:28.149Z,101649.56
2022-12-25T00:51:00.942Z,101650.50
2022-12-25T00:53:28.720Z,101646.33
2022-12-25T00:55:57.600Z,101644.34
2022-12-25T00:58:26.020Z,101645.77
2022-12-25T01:00:52.937Z,101644.50
2022-12-25T01:03:19.794Z,101642.02
2022-12-25T01:06:04.963Z,101648.48
2022-12-25T01:08:34.684Z,101647.90
2022-12-25T01:11:04.798Z,101650.08
2022-12-25T01:13:34.884Z,101648.61
2022-12-25T01:16:11.773Z,101647.02
2022-12-25T01:18:38.961Z,101653.66
2022-12-25T01:21:10.879Z,101653.48
2022-12-25T01:23:38.068Z,101652.85
2022-12-25T01:26:09.657Z,101652.88
2022-12-25T01:28:36.708Z,101652.25
2022-12-25T01:31:04.628Z,101662.59
2022-12-25T01:33:31.711Z,101661.49
2022-12-25T01:35:58.752Z,101659.02
2022-12-25T01:38:25.787Z,101658.58
2022-12-25T01:40:52.688Z,101662.05
2022-12-25T01:43:31.165Z,101664.25
2022-12-25T01:45:58.863Z,101664.41
2022-12-25T01:48:30.780Z,101666.83
2022-12-25T01:51:02.037Z,101665.40
2022-12-25T01:53:29.352Z,101665.94
2022-12-25T01:56:06.846Z,101665.85
2022-12-25T01:58:35.156Z,101667.04
2022-12-25T02:01:06.178Z,101668.95
2022-12-25T02:03:33.033Z,101666.79
2022-12-25T02:06:00.822Z,101669.59
2022-12-25T02:08:27.692Z,101666.39
2022-12-25T02:10:54.417Z,101665.69
2022-12-25T02:13:21.163Z,101663.92
2022-12-25T02:16:09.524Z,101665.66
2022-12-25T02:18:48.251Z,101662.96
2022-12-25T02:21:38.177Z,101664.89
2022-12-25T02:24:23.323Z,101669.72
2022-12-25T02:27:10.293Z,101672.31
2022-12-25T02:29:42.679Z,101669.19
2022-12-25T02:32:26.544Z,101672.33
2022-12-25T02:35:05.602Z,101672.67
2022-12-25T02:37:57.053Z,101671.48
2022-12-25T02:40:45.449Z,101673.06
2022-12-25T02:43:39.525Z,101674.27
2022-12-25T02:46:27.944Z,101670.86
2022-12-25T02:49:20.172Z,101670.20
2022-12-25T02:52:13.027Z,101663.48
2022-12-25T02:55:04.321Z,101663.86
2022-12-25T02:57:56.380Z,101667.15
2022-12-25T03:00:41.765Z,101667.93
2022-12-25T03:03:30.802Z,101668.98
2022-12-25T03:06:20.259Z,101666.67
2022-12-25T03:08:53.692Z,101662.85
2022-12-25T03:11:32.991Z,101665.65
2022-12-25T03:14:24.019Z,101663.05
2022-12-25T03:16:54.161Z,101663.86
2022-12-25T03:20:02.585Z,101664.38
2022-12-25T03:22:51.025Z,101660.92
2022-12-25T03:25:37.840Z,101657.33
2022-12-25T03:28:05.778Z,101657.16
2022-12-25T03:31:13.144Z,101655.25
2022-12-25T03:34:20.867Z,101659.69
2022-12-25T03:37:14.491Z,101659.53
2022-12-25T03:39:53.405Z,101657.13
2022-12-25T03:42:46.234Z,101656.16
2022-12-25T03:45:36.268Z,101656.06
2022-12-25T03:48:27.929Z,101655.29
2022-12-25T03:51:21.544Z,101657.16
2022-12-25T03:54:13.061Z,101656.31
2022-12-25T03:56:58.936Z,101658.48
2022-12-25T03:59:44.593Z,101662.55
2022-12-25T04:02:30.215Z,101666.80
2022-12-25T04:05:15.566Z,101663.58
2022-12-25T04:08:01.017Z,101671.02
2022-12-25T04:10:46.396Z,101668.11
2022-12-25T04:13:31.819Z,101672.02
2022-12-25T04:16:17.149Z,101677.58
2022-12-25T04:19:02.599Z,101678.81
2022-12-25T04:21:48.213Z,101681.05
2022-12-25T04:24:33.503Z,101677.34
2022-12-25T04:27:19.046Z,101674.77
2022-12-25T04:30:04.316Z,101678.78
2022-12-25T04:32:50.313Z,101674.06
2022-12-25T04:35:35.767Z,101677.69
2022-12-25T04:38:02.418Z,101685.08
2022-12-25T04:40:29.081Z,101683.15
2022-12-25T04:42:55.627Z,101693.63
2022-12-25T04:45:22.376Z,101692.84
2022-12-25T04:47:48.978Z,101690.27
2022-12-25T04:50:15.769Z,101693.18
2022-12-25T04:52:42.849Z,101694.02
2022-12-25T04:55:10.758Z,101694.86
2022-12-25T04:57:38.152Z,101696.82
2022-12-25T05:00:06.338Z,101698.71
2022-12-25T05:02:33.480Z,101701.00
2022-12-25T05:05:00.350Z,101704.16
2022-12-25T05:07:26.981Z,101708.92
2022-12-25T05:09:53.716Z,101714.08
2022-12-25T05:12:20.257Z,101712.55
2022-12-25T05:14:47.002Z,101709.51
2022-12-25T05:17:13.572Z,101710.97
2022-12-25T05:19:40.263Z,101712.19
2022-12-25T05:22:06.835Z,101709.10
2022-12-25T05:24:33.685Z,101707.02
2022-12-25T05:27:00.431Z,101714.56
2022-12-25T05:29:27.007Z,101718.77
2022-12-25T05:31:53.716Z,101719.33
2022-12-25T05:34:20.266Z,101713.80
2022-12-25T05:36:46.921Z,101710.27
2022-12-25T05:39:13.785Z,101707.10
2022-12-25T05:41:40.807Z,101709.24
2022-12-25T05:44:07.518Z,101713.48
2022-12-25T05:46:34.154Z,101712.12
2022-12-25T05:49:00.885Z,101711.13
2022-12-25T05:51:27.601Z,101711.27
2022-12-25T05:53:54.243Z,101713.06
2022-12-25T05:56:20.917Z,101711.13
2022-12-25T05:58:47.685Z,101711.52
2022-12-25T06:01:20.962Z,101713.52
2022-12-25T06:03:48.166Z,101713.48
2022-12-25T06:06:15.061Z,101717.45
2022-12-25T06:08:42.001Z,101719.19
2022-12-25T06:11:14.968Z,101723.98
2022-12-25T06:13:42.011Z,101731.02
2022-12-25T06:16:11.708Z,101740.10
2022-12-25T06:18:41.304Z,101741.66
2022-12-25T06:21:09.815Z,101739.49
2022-12-25T06:23:38.256Z,101744.61
2022-12-25T06:26:11.367Z,101750.13
2022-12-25T06:28:38.146Z,101751.18
2022-12-25T06:31:09.646Z,101752.45
2022-12-25T06:33:37.473Z,101752.14
2022-12-25T06:36:22.054Z,101758.39
2022-12-25T06:38:49.215Z,101761.27
2022-12-25T06:41:18.394Z,101764.14
2022-12-25T06:43:49.980Z,101761.27
2022-12-25T06:46:17.637Z,101766.61
2022-12-25T06:48:50.368Z,101764.58
2022-12-25T06:51:17.946Z,101761.63
2022-12-25T06:53:44.693Z,101759.11
2022-12-25T06:56:15.769Z,101759.96
2022-12-25T06:58:48.495Z,101760.23
2022-12-25T07:01:20.729Z,101759.66
2022-12-25T07:03:50.633Z,101760.24
2022-12-25T07:06:17.447Z,101764.40
2022-12-25T07:08:44.180Z,101768.20
2022-12-25T07:11:10.876Z,101768.27
2022-12-25T07:13:37.764Z,101775.34
2022-12-25T07:16:05.904Z,101770.13
2022-12-25T07:18:32.717Z,101772.12
2022-12-25T07:21:05.095Z,101775.25
2022-12-25T07:23:31.815Z,101775.77
2022-12-25T07:25:59.595Z,101773.38
2022-12-25T07:28:27.574Z,101776.75
2022-12-25T07:30:54.248Z,101778.25
2022-12-25T07:33:21.053Z,101778.80
2022-12-25T07:35:48.023Z,101779.30
2022-12-25T07:38:14.672Z,101779.92
2022-12-25T07:40:41.293Z,101784.27
2022-12-25T07:43:07.830Z,101789.09
2022-12-25T07:45:34.563Z,101795.52
2022-12-25T07:48:05.233Z,101798.04
2022-12-25T07:50:34.137Z,101802.44
2022-12-25T07:53:00.790Z,101803.92
2022-12-25T07:55:27.316Z,101809.17
2022-12-25T07:57:55.152Z,101812.02
2022-12-25T08:00:22.215Z,101813.30
2022-12-25T08:02:50.264Z,101819.81
2022-12-25T08:05:17.277Z,101822.41
2022-12-25T08:07:44.027Z,101821.95
2022-12-25T08:10:11.203Z,101824.92
2022-12-25T08:12:37.923Z,101826.87
2022-12-25T08:15:05.242Z,101829.73
2022-12-25T08:17:34.982Z,101835.55
2022-12-25T08:20:01.644Z,101838.33
2022-12-25T08:22:28.250Z,101840.27
2022-12-25T08:24:54.916Z,101839.91
2022-12-25T08:27:21.507Z,101838.66
2022-12-25T08:29:48.178Z,101841.63
2022-12-25T08:32:14.789Z,101842.59
2022-12-25T08:34:41.379Z,101843.58
2022-12-25T08:37:08.112Z,101850.52
2022-12-25T08:39:34.780Z,101849.55
2022-12-25T08:42:01.671Z,101852.27
2022-12-25T08:44:28.514Z,101857.29
2022-12-25T08:46:55.276Z,101855.00
2022-12-25T08:49:22.094Z,101860.41
2022-12-25T08:51:49.042Z,101859.77
2022-12-25T08:54:15.696Z,101859.83
2022-12-25T08:56:42.419Z,101866.08
2022-12-25T08:59:09.161Z,101871.45
2022-12-25T09:01:36.116Z,101876.48
2022-12-25T09:04:03.105Z,101874.60
2022-12-25T09:06:29.908Z,101868.58
2022-12-25T09:08:56.601Z,101872.39
2022-12-25T09:11:24.227Z,101880.35
2022-12-25T09:13:50.931Z,101882.83
2022-12-25T09:16:20.397Z,101887.79
2022-12-25T09:18:47.967Z,101892.07
2022-12-25T09:21:16.065Z,101894.16
2022-12-25T09:23:42.923Z,101899.03
2022-12-25T09:26:14.156Z,101904.46
2022-12-25T09:28:46.633Z,101907.27
2022-12-25T09:31:17.282Z,101901.10
2022-12-25T09:33:44.062Z,101904.94
2022-12-25T09:36:11.162Z,101902.05
2022-12-25T09:38:38.124Z,101901.88
2022-12-25T09:41:26.626Z,101902.85
2022-12-25T09:44:00.850Z,101906.25
2022-12-25T09:46:36.959Z,101905.28
2022-12-25T09:49:17.034Z,101906.23
2022-12-25T09:51:45.982Z,101907.60
2022-12-25T09:54:22.648Z,101910.30
2022-12-25T09:56:49.516Z,101911.98
2022-12-25T09:59:24.508Z,101903.27
2022-12-25T10:02:11.789Z,101908.37
2022-12-25T10:05:20.809Z,101912.43
2022-12-25T10:07:47.480Z,101910.13
2022-12-25T10:10:20.108Z,101910.20
2022-12-25T10:13:14.445Z,101905.30
2022-12-25T10:15:45.822Z,101906.61
2022-12-25T10:18:41.029Z,101907.83
2022-12-25T10:21:13.392Z,101907.98
2022-12-25T10:23:52.995Z,101903.87
2022-12-25T10:26:25.387Z,101906.14
2022-12-25T10:29:01.403Z,101908.94
2022-12-25T10:31:30.565Z,101901.29
2022-12-25T10:33:58.259Z,101899.17
2022-12-25T10:36:28.272Z,101900.84
2022-12-25T10:38:56.064Z,101902.01
2022-12-25T10:41:22.768Z,101900.20
2022-12-25T10:43:52.945Z,101903.48
2022-12-25T10:46:21.124Z,101900.63
2022-12-25T10:49:02.955Z,101899.29
2022-12-25T10:51:34.027Z,101895.05
2022-12-25T10:54:19.373Z,101887.08
2022-12-25T10:57:02.884Z,101884.27
2022-12-25T10:59:35.017Z,101881.64
2022-12-25T11:02:13.938Z,101874.48
2022-12-25T11:04:41.086Z,101876.30
2022-12-25T11:07:20.327Z,101870.23
2022-12-25T11:09:54.626Z,101872.48
2022-12-25T11:12:31.830Z,101864.59
2022-12-25T11:15:06.515Z,101862.60
2022-12-25T11:17:33.231Z,101859.19
2022-12-25T11:20:01.356Z,101856.06
2022-12-25T11:22:29.370Z,101855.13
2022-12-25T11:24:56.163Z,101850.81
2022-12-25T11:27:26.651Z,101844.83
2022-12-25T11:30:05.042Z,101845.25
2022-12-25T11:32:39.640Z,101839.51
2022-12-25T11:35:13.220Z,101834.98
2022-12-25T11:37:42.892Z,101840.95
2022-12-25T11:40:16.440Z,101838.45
2022-12-25T11:42:55.733Z,101838.19
2022-12-25T11:45:35.213Z,101841.02
2022-12-25T11:48:13.863Z,101844.14
2022-12-25T11:50:42.892Z,101839.52
2022-12-25T11:53:21.647Z,101838.98
2022-12-25T11:55:57.400Z,101837.62
2022-12-25T11:58:33.187Z,101831.67
2022-12-25T12:01:05.121Z,101830.84
2022-12-25T12:03:37.563Z,101830.84
2022-12-25T12:06:07.403Z,101829.56
2022-12-25T12:08:36.197Z,101827.33
2022-12-25T12:11:16.316Z,101826.64
2022-12-25T12:14:01.711Z,101833.23
2022-12-25T12:16:29.309Z,101826.85
2022-12-25T12:18:56.111Z,101824.98
2022-12-25T12:21:26.144Z,101825.35
2022-12-25T12:24:05.009Z,101819.59
2022-12-25T12:26:38.022Z,101814.76
2022-12-25T12:29:07.830Z,101811.13
2022-12-25T12:31:48.824Z,101806.90
2022-12-25T12:34:27.060Z,101810.89
2022-12-25T12:37:02.200Z,101809.36
2022-12-25T12:39:35.642Z,101807.09
2022-12-25T12:42:10.972Z,101805.63
2022-12-25T12:44:37.712Z,101806.80
2022-12-25T12:47:04.505Z,101804.84
2022-12-25T12:49:33.746Z,101810.20
2022-12-25T12:52:25.420Z,101806.70
2022-12-25T12:55:05.264Z,101808.71
2022-12-25T12:57:39.313Z,101806.19
2022-12-25T13:00:20.058Z,101810.20
2022-12-25T13:02:55.832Z,101809.73
2022-12-25T13:05:54.277Z,101810.99
2022-12-25T13:08:33.437Z,101811.66
2022-12-25T13:11:10.967Z,101809.36
2022-12-25T13:13:41.906Z,101813.27
2022-12-25T13:16:34.754Z,101815.16
2022-12-25T13:19:07.528Z,101816.78
2022-12-25T13:21:35.369Z,101817.47
2022-12-25T13:24:17.920Z,101822.17
2022-12-25T13:26:44.626Z,101822.56
2022-12-25T13:29:33.184Z,101818.98
2022-12-25T13:32:01.991Z,101820.33
2022-12-25T13:34:32.660Z,101823.48
2022-12-25T13:37:06.483Z,101820.05
2022-12-25T13:39:35.162Z,101820.20
2022-12-25T13:42:05.510Z,101824.33
2022-12-25T13:45:00.716Z,101825.65
2022-12-25T13:47:43.268Z,101829.84
2022-12-25T13:50:24.217Z,101831.95
2022-12-25T13:52:52.390Z,101832.16
2022-12-25T13:55:25.797Z,101833.34
2022-12-25T13:57:59.300Z,101836.15
2022-12-25T14:00:33.651Z,101834.50
2022-12-25T14:03:00.549Z,101836.37
2022-12-25T14:05:37.936Z,101837.22
2022-12-25T14:08:25.281Z,101836.46
2022-12-25T14:10:53.145Z,101837.62
2022-12-25T14:13:23.561Z,101838.70
2022-12-25T14:15:53.680Z,101839.80
2022-12-25T14:18:23.051Z,101839.20
2022-12-25T14:20:55.472Z,101839.21
2022-12-25T14:23:22.436Z,101841.36
2022-12-25T14:25:49.200Z,101838.74
2022-12-25T14:28:27.119Z,101837.98
2022-12-25T14:30:54.688Z,101840.70
2022-12-25T14:33:24.212Z,101843.77
2022-12-25T14:35:51.619Z,101840.64
2022-12-25T14:38:26.254Z,101839.09
2022-12-25T14:41:24.196Z,101844.30
2022-12-25T14:43:54.437Z,101850.38
2022-12-25T14:46:26.848Z,101855.38
2022-12-25T14:49:05.679Z,101850.47
2022-12-25T14:51:33.856Z,101848.36
2022-12-25T14:54:04.294Z,101852.46
2022-12-25T14:56:38.261Z,101854.56
2022-12-25T14:59:07.781Z,101852.70
2022-12-25T15:01:38.603Z,101844.09
2022-12-25T15:04:11.158Z,101846.05
2022-12-25T15:06:52.916Z,101849.50
2022-12-25T15:09:20.063Z,101854.87
2022-12-25T15:11:51.751Z,101854.80
2022-12-25T15:14:18.985Z,101857.48
2022-12-25T15:16:48.727Z,101866.15
2022-12-25T15:19:25.269Z,101866.19
2022-12-25T15:21:53.266Z,101864.17
2022-12-25T15:24:19.924Z,101865.18
2022-12-25T15:26:46.721Z,101869.60
2022-12-25T15:29:13.461Z,101870.31
2022-12-25T15:31:41.768Z,101870.37
2022-12-25T15:34:20.966Z,101872.96
2022-12-25T15:36:48.575Z,101872.98
2022-12-25T15:39:15.333Z,101876.23
2022-12-25T15:42:00.776Z,101874.04
2022-12-25T15:44:27.449Z,101870.23
2022-12-25T15:46:54.775Z,101870.77
2022-12-25T15:49:21.512Z,101871.49
2022-12-25T15:51:48.413Z,101871.99
2022-12-25T15:54:15.116Z,101875.03
2022-12-25T15:56:50.869Z,101868.56
2022-12-25T15:59:20.035Z,101867.55
2022-12-25T16:01:55.144Z,101867.69
2022-12-25T16:04:22.926Z,101870.72
2022-12-25T16:06:50.379Z,101872.17
2022-12-25T16:09:18.680Z,101872.69
2022-12-25T16:11:45.797Z,101873.19
2022-12-25T16:14:12.902Z,101875.62
2022-12-25T16:16:40.156Z,101874.36
2022-12-25T16:19:07.758Z,101872.95
2022-12-25T16:21:40.575Z,101870.77
2022-12-25T16:24:07.564Z,101869.92
2022-12-25T16:26:34.645Z,101870.45
2022-12-25T16:29:06.676Z,101874.51
2022-12-25T16:31:34.308Z,101872.11
2022-12-25T16:34:01.820Z,101873.62
2022-12-25T16:36:28.576Z,101871.86
2022-12-25T16:38:55.478Z,101875.23
2022-12-25T16:41:22.763Z,101876.03
2022-12-25T16:43:49.749Z,101874.93
2022-12-25T16:46:19.369Z,101876.38
2022-12-25T16:48:46.443Z,101872.95
2022-12-25T16:51:19.307Z,101870.91
2022-12-25T16:53:46.672Z,101874.38
2022-12-25T16:56:16.587Z,101874.74
2022-12-25T16:58:47.499Z,101875.36
2022-12-25T17:01:16.774Z,101877.87
2022-12-25T17:03:44.100Z,101877.63
2022-12-25T17:06:15.884Z,101883.23
2022-12-25T17:08:43.748Z,101886.31
2022-12-25T17:11:10.683Z,101884.16
2022-12-25T17:13:37.556Z,101882.75
2022-12-25T17:16:25.597Z,101874.38
2022-12-25T17:18:57.583Z,101863.21
2022-12-25T17:21:25.157Z,101866.16
2022-12-25T17:23:54.280Z,101866.63
2022-12-25T17:26:24.918Z,101877.46
2022-12-25T17:28:51.756Z,101881.70
2022-12-25T17:31:19.096Z,101884.20
2022-12-25T17:33:45.958Z,101889.92
2022-12-25T17:36:15.626Z,101887.79
2022-12-25T17:38:42.962Z,101887.83
2022-12-25T17:41:12.342Z,101884.16
2022-12-25T17:43:45.710Z,101889.96
2022-12-25T17:46:18.025Z,101887.31
2022-12-25T17:48:45.618Z,101890.27
2022-12-25T17:51:16.212Z,101890.17
2022-12-25T17:53:45.331Z,101889.49
2022-12-25T17:56:13.038Z,101884.31
2022-12-25T17:58:40.080Z,101884.23
2022-12-25T18:01:09.968Z,101884.34
2022-12-25T18:03:36.917Z,101889.86
2022-12-25T18:06:07.702Z,101895.88
2022-12-25T18:08:39.259Z,101902.25
2022-12-25T18:11:09.359Z,101901.08
2022-12-25T18:13:37.725Z,101892.21
2022-12-25T18:16:06.615Z,101896.47
2022-12-25T18:18:35.062Z,101902.66
2022-12-25T18:21:02.404Z,101913.88
2022-12-25T18:23:29.547Z,101914.03
2022-12-25T18:25:56.676Z,101907.30
2022-12-25T18:28:23.509Z,101906.45
2022-12-25T18:30:50.257Z,101906.40
2022-12-25T18:33:16.930Z,101911.74
2022-12-25T18:35:46.685Z,101911.58
2022-12-25T18:38:14.371Z,101908.90
2022-12-25T18:40:46.716Z,101901.73
2022-12-25T18:43:14.772Z,101898.48
2022-12-25T18:45:42.270Z,101900.17
2022-12-25T18:48:10.517Z,101904.55
2022-12-25T18:50:39.180Z,101901.73
2022-12-25T18:53:06.958Z,101903.37
2022-12-25T18:55:35.598Z,101903.66
2022-12-25T18:58:02.532Z,101902.96
2022-12-25T19:00:29.302Z,101899.77
2022-12-25T19:02:58.563Z,101894.73
2022-12-25T19:05:26.053Z,101898.27
2022-12-25T19:07:53.067Z,101893.70
2022-12-25T19:10:19.838Z,101895.83
2022-12-25T19:12:46.711Z,101895.75
2022-12-25T19:15:13.969Z,101898.66
2022-12-25T19:17:40.723Z,101904.46
2022-12-25T19:20:08.368Z,101905.12
2022-12-25T19:22:35.231Z,101908.66
2022-12-25T19:25:01.965Z,101908.87
2022-12-25T19:27:28.820Z,101900.45
2022-12-25T19:29:55.690Z,101897.02
2022-12-25T19:32:22.517Z,101897.35
2022-12-25T19:34:49.240Z,101894.17
2022-12-25T19:37:16.208Z,101899.52
2022-12-25T19:39:46.753Z,101903.89
2022-12-25T19:42:16.049Z,101895.80
2022-12-25T19:44:43.424Z,101896.61
2022-12-25T19:47:10.767Z,101894.23
2022-12-25T19:49:37.491Z,101894.01
2022-12-25T19:52:04.415Z,101898.98
2022-12-25T19:54:31.468Z,101897.38
2022-12-25T19:56:58.176Z,101900.88
2022-12-25T19:59:24.904Z,101901.34
2022-12-25T20:01:51.751Z,101900.56
2022-12-25T20:04:18.745Z,101902.31
2022-12-25T20:06:45.887Z,101908.01
2022-12-25T20:09:21.269Z,101902.09
2022-12-25T20:11:48.840Z,101909.77
2022-12-25T20:14:16.690Z,101911.29
2022-12-25T20:16:44.276Z,101909.73
2022-12-25T20:19:14.517Z,101917.24
2022-12-25T20:21:41.847Z,101916.48
2022-12-25T20:24:11.024Z,101916.84
2022-12-25T20:26:39.553Z,101914.55
2022-12-25T20:29:06.813Z,101913.20
2022-12-25T20:31:35.031Z,101911.89
2022-12-25T20:34:07.538Z,101914.00
2022-12-25T20:36:37.637Z,101917.13
2022-12-25T20:39:09.611Z,101925.92
2022-12-25T20:41:37.615Z,101922.34
2022-12-25T20:44:06.470Z,101926.83
2022-12-25T20:46:33.365Z,101929.28
2022-12-25T20:49:02.097Z,101931.04
2022-12-25T20:51:28.980Z,101926.67
2022-12-25T20:53:56.765Z,101930.48
2022-12-25T20:56:25.826Z,101930.30
2022-12-25T20:58:58.883Z,101933.05
2022-12-25T21:01:27.272Z,101936.77
2022-12-25T21:03:55.037Z,101940.58
2022-12-25T21:06:23.243Z,101943.41
2022-12-25T21:08:50.037Z,101945.81
2022-12-25T21:11:18.103Z,101951.36
2022-12-25T21:13:46.228Z,101951.94
2022-12-25T21:16:17.230Z,101949.30
2022-12-25T21:18:44.484Z,101952.11
2022-12-25T21:21:11.427Z,101950.31
2022-12-25T21:23:40.142Z,101946.92
2022-12-25T21:26:19.056Z,101950.40
2022-12-25T21:28:50.723Z,101952.38
2022-12-25T21:31:18.425Z,101955.20
2022-12-25T21:33:55.270Z,101952.27
2022-12-25T21:36:30.898Z,101946.54
2022-12-25T21:39:08.101Z,101947.78
2022-12-25T21:41:37.961Z,101946.33
2022-12-25T21:44:05.375Z,101944.96
2022-12-25T21:46:32.457Z,101951.36
2022-12-25T21:49:00.852Z,101953.59
2022-12-25T21:51:49.519Z,101952.83
2022-12-25T21:54:18.086Z,101956.71
2022-12-25T21:56:47.275Z,101964.42
2022-12-25T21:59:20.532Z,101958.89
2022-12-25T22:01:48.270Z,101955.77
2022-12-25T22:04:16.913Z,101957.22
2022-12-25T22:07:03.676Z,101958.00
2022-12-25T22:09:30.694Z,101957.02
2022-12-25T22:12:16.713Z,101962.50
2022-12-25T22:14:55.420Z,101963.71
2022-12-25T22:17:49.818Z,101955.67
2022-12-25T22:20:19.738Z,101954.99
2022-12-25T22:22:46.883Z,101960.34
2022-12-25T22:25:14.432Z,101962.95
2022-12-25T22:27:43.078Z,101960.75
2022-12-25T22:30:16.163Z,101962.46
2022-12-25T22:32:43.078Z,101965.61
2022-12-25T22:35:12.355Z,101963.73
2022-12-25T22:37:40.457Z,101962.58
2022-12-25T22:40:08.964Z,101966.42
2022-12-25T22:42:35.794Z,101971.25
2022-12-25T22:45:04.337Z,101966.39
2022-12-25T22:47:31.300Z,101966.52
2022-12-25T22:49:58.105Z,101965.80
2022-12-25T22:52:24.837Z,101968.58
2022-12-25T22:54:51.522Z,101967.55
2022-12-25T22:57:18.257Z,101964.92
2022-12-25T22:59:46.016Z,101967.64
2022-12-25T23:02:13.162Z,101965.05
2022-12-25T23:04:40.005Z,101959.94
2022-12-25T23:07:07.007Z,101963.00
2022-12-25T23:09:34.343Z,101962.67
2022-12-25T23:12:01.021Z,101961.48
2022-12-25T23:14:39.964Z,101963.45
2022-12-25T23:17:29.645Z,101964.23
2022-12-25T23:20:17.775Z,101962.28
2022-12-25T23:23:05.275Z,101960.14
2022-12-25T23:25:52.927Z,101959.94
2022-12-25T23:28:40.213Z,101965.77
2022-12-25T23:31:07.241Z,101955.84
2022-12-25T23:33:34.264Z,101956.38
2022-12-25T23:36:01.210Z,101958.98
2022-12-25T23:38:28.157Z,101963.86
2022-12-25T23:40:55.000Z,101959.52
2022-12-25T23:43:21.850Z,101963.77
2022-12-25T23:45:48.606Z,101962.32
2022-12-25T23:48:15.426Z,101971.73
2022-12-25T23:50:42.165Z,101965.41
2022-12-25T23:53:10.999Z,101967.64
2022-12-25T23:55:37.905Z,101966.72
2022-12-25T23:58:04.949Z,101964.75
